createdAt,value
2022-11-28T00:02:17.891Z,3.032532
2022-11-28T00:05:46.817Z,3.052673
2022-11-28T00:09:08.059Z,3.032532
2022-11-28T00:12:33.265Z,3.13324
2022-11-28T00:15:58.502Z,3.153381
2022-11-28T00:19:23.777Z,3.143311
2022-11-28T00:22:48.859Z,3.183594
2022-11-28T00:26:14.073Z,3.244019
2022-11-28T00:29:39.289Z,3.294373
2022-11-28T00:33:04.496Z,3.203735
2022-11-28T00:36:29.810Z,3.173523
2022-11-28T00:39:54.897Z,3.113098
2022-11-28T00:43:20.092Z,3.052673
2022-11-28T00:46:45.313Z,3.022461
2022-11-28T00:50:10.507Z,3.022461
2022-11-28T00:53:35.842Z,3.082886
2022-11-28T00:57:00.907Z,3.062744
2022-11-28T01:00:26.099Z,3.052673
2022-11-28T01:03:51.301Z,3.032532
2022-11-28T01:07:16.549Z,3.103027
2022-11-28T01:10:41.829Z,3.153381
2022-11-28T01:14:06.930Z,3.203735
2022-11-28T01:17:32.130Z,3.334656
2022-11-28T01:20:57.317Z,3.415222
2022-11-28T01:24:22.515Z,3.395081
2022-11-28T01:27:47.853Z,3.415222
2022-11-28T01:31:12.957Z,3.38501
2022-11-28T01:34:38.126Z,3.324585
2022-11-28T01:38:03.358Z,3.244019
2022-11-28T01:41:28.543Z,3.324585
2022-11-28T01:44:53.880Z,3.284302
2022-11-28T01:48:18.973Z,3.26416
2022-11-28T01:51:44.170Z,3.284302
2022-11-28T01:55:09.377Z,3.213806
2022-11-28T01:58:34.586Z,3.183594
2022-11-28T02:02:00.004Z,3.153381
2022-11-28T02:05:24.971Z,3.233948
2022-11-28T02:08:50.191Z,3.284302
2022-11-28T02:12:15.398Z,3.284302
2022-11-28T02:15:40.594Z,3.294373
2022-11-28T02:19:05.928Z,3.284302
2022-11-28T02:22:31.019Z,3.294373
2022-11-28T02:25:56.220Z,3.26416
2022-11-28T02:29:21.420Z,3.294373
2022-11-28T02:32:46.621Z,3.213806
2022-11-28T02:36:11.971Z,3.244019
2022-11-28T02:39:37.082Z,3.233948
2022-11-28T02:43:02.331Z,3.13324
2022-11-28T02:46:27.597Z,3.082886
2022-11-28T02:49:52.787Z,2.931824
2022-11-28T02:53:18.105Z,2.841187
2022-11-28T02:56:43.223Z,2.841187
2022-11-28T03:00:08.457Z,2.810974
2022-11-28T03:03:33.659Z,2.720337
2022-11-28T03:06:58.848Z,2.690125
2022-11-28T03:10:24.199Z,2.669983
2022-11-28T03:13:49.301Z,2.780762
2022-11-28T03:17:14.544Z,2.972107
2022-11-28T03:20:39.740Z,3.13324
2022-11-28T03:24:04.940Z,3.052673
2022-11-28T03:27:30.298Z,3.143311
2022-11-28T03:30:55.363Z,3.203735
2022-11-28T03:34:20.584Z,3.294373
2022-11-28T03:37:45.762Z,3.244019
2022-11-28T03:41:10.970Z,3.213806
2022-11-28T03:44:36.327Z,3.213806
2022-11-28T03:48:01.438Z,3.233948
2022-11-28T03:51:26.618Z,3.233948
2022-11-28T03:54:51.816Z,3.203735
2022-11-28T03:58:17.021Z,3.143311
2022-11-28T04:01:42.385Z,3.082886
2022-11-28T04:05:07.511Z,2.992249
2022-11-28T04:08:32.736Z,2.901611
2022-11-28T04:11:57.946Z,2.901611
2022-11-28T04:15:23.150Z,2.891541
2022-11-28T04:18:48.491Z,2.821045
2022-11-28T04:22:13.582Z,2.810974
2022-11-28T04:25:38.821Z,2.810974
2022-11-28T04:29:04.045Z,2.810974
2022-11-28T04:32:29.244Z,2.790833
2022-11-28T04:35:54.608Z,2.891541
2022-11-28T04:39:19.703Z,2.901611
2022-11-28T04:42:47.578Z,2.841187
2022-11-28T04:46:10.348Z,2.780762
2022-11-28T04:49:35.463Z,2.780762
2022-11-28T04:53:01.543Z,2.891541
2022-11-28T04:56:27.791Z,3.022461
2022-11-28T04:59:55.111Z,3.13324
2022-11-28T05:03:20.326Z,3.213806
2022-11-28T05:06:45.548Z,3.203735
2022-11-28T05:10:10.865Z,3.183594
2022-11-28T05:13:35.968Z,3.203735
2022-11-28T05:17:01.192Z,3.233948
2022-11-28T05:20:26.487Z,3.294373
2022-11-28T05:23:51.665Z,3.183594
2022-11-28T05:27:17.059Z,3.113098
2022-11-28T05:30:42.150Z,3.13324
2022-11-28T05:34:07.410Z,3.143311
2022-11-28T05:37:32.634Z,3.143311
2022-11-28T05:40:57.880Z,3.13324
2022-11-28T05:44:26.793Z,3.082886
2022-11-28T05:47:48.303Z,3.143311
2022-11-28T05:51:13.512Z,3.173523
2022-11-28T05:54:38.699Z,3.233948
2022-11-28T05:58:03.903Z,3.294373
2022-11-28T06:01:29.242Z,3.38501
2022-11-28T06:04:54.341Z,3.475647
2022-11-28T06:08:19.522Z,3.546143
2022-11-28T06:11:44.717Z,3.505859
2022-11-28T06:15:09.944Z,3.465576
2022-11-28T06:18:35.299Z,3.505859
2022-11-28T06:22:00.419Z,3.606567
2022-11-28T06:25:25.622Z,3.536072
2022-11-28T06:28:50.820Z,3.354797
2022-11-28T06:32:20.502Z,3.314514
2022-11-28T06:35:41.358Z,3.294373
2022-11-28T06:39:06.452Z,3.38501
2022-11-28T06:42:31.648Z,3.495789
2022-11-28T06:45:56.931Z,3.505859
2022-11-28T06:49:22.092Z,3.415222
2022-11-28T06:52:47.416Z,3.425293
2022-11-28T06:55:54.786Z,3.51593
2022-11-28T06:59:20.026Z,3.505859
2022-11-28T07:02:45.337Z,3.38501
2022-11-28T07:06:10.487Z,3.284302
2022-11-28T07:09:35.800Z,3.26416
2022-11-28T07:13:05.031Z,3.13324
2022-11-28T07:16:26.136Z,3.143311
2022-11-28T07:19:55.057Z,3.143311
2022-11-28T07:23:17.223Z,3.143311
2022-11-28T07:27:15.754Z,3.213806
2022-11-28T07:30:40.848Z,3.13324
2022-11-28T07:34:06.134Z,3.032532
2022-11-28T07:37:31.330Z,3.032532
2022-11-28T07:40:56.542Z,3.022461
2022-11-28T07:44:22.205Z,3.052673
2022-11-28T07:47:47.392Z,2.951965
2022-11-28T07:51:12.606Z,2.871399
2022-11-28T07:54:37.831Z,2.841187
2022-11-28T07:58:03.064Z,2.921753
2022-11-28T08:01:28.305Z,2.851257
2022-11-28T08:04:55.311Z,2.931824
2022-11-28T08:08:18.774Z,3.032532
2022-11-28T08:11:43.994Z,3.173523
2022-11-28T08:15:09.246Z,3.183594
2022-11-28T08:18:34.504Z,3.213806
2022-11-28T08:21:59.712Z,3.334656
2022-11-28T08:25:24.983Z,3.415222
2022-11-28T08:28:50.185Z,3.465576
2022-11-28T08:32:15.428Z,3.546143
2022-11-28T08:35:40.688Z,3.546143
2022-11-28T08:42:31.103Z,3.606567
2022-11-28T08:45:56.391Z,3.646851
2022-11-28T08:49:21.610Z,3.495789
2022-11-28T08:52:46.882Z,3.495789
2022-11-28T08:56:12.108Z,3.656921
2022-11-28T08:59:37.369Z,3.797913
2022-11-28T09:03:02.592Z,4.01947
2022-11-28T09:06:27.864Z,4.14032
2022-11-28T09:09:53.139Z,4.261169
2022-11-28T09:13:18.345Z,4.241028
2022-11-28T09:16:43.594Z,4.079895
2022-11-28T09:20:08.820Z,4.049683
2022-11-28T09:23:34.059Z,3.898621
2022-11-28T09:26:59.306Z,3.959045
2022-11-28T09:30:24.513Z,3.928833
2022-11-28T09:33:49.733Z,3.969116
2022-11-28T09:37:14.972Z,4.14032
2022-11-28T09:40:40.179Z,4.150391
2022-11-28T09:44:05.424Z,4.241028
2022-11-28T09:47:30.613Z,4.412231
2022-11-28T09:50:55.847Z,4.623718
2022-11-28T09:54:21.067Z,4.724426
2022-11-28T09:57:46.294Z,4.784851
2022-11-28T10:01:11.504Z,4.804993
2022-11-28T10:04:36.779Z,4.784851
2022-11-28T10:08:02.009Z,4.754639
2022-11-28T10:11:27.208Z,4.724426
2022-11-28T10:14:52.405Z,4.734497
2022-11-28T10:18:17.666Z,4.835205
2022-11-28T10:21:42.898Z,4.754639
2022-11-28T10:25:08.131Z,4.77478
2022-11-28T10:28:33.365Z,4.845276
2022-11-28T10:31:58.573Z,4.935913
2022-11-28T10:35:28.035Z,4.996338
2022-11-28T10:38:49.045Z,4.966125
2022-11-28T10:42:14.331Z,5.016479
2022-11-28T10:45:39.614Z,4.875488
2022-11-28T10:49:04.776Z,4.754639
2022-11-28T10:52:30.053Z,4.875488
2022-11-28T10:55:55.263Z,4.905701
2022-11-28T10:59:20.524Z,5.086975
2022-11-28T11:02:45.762Z,5.02655
2022-11-28T11:06:10.983Z,5.086975
2022-11-28T11:09:36.224Z,5.1474
2022-11-28T11:13:01.407Z,5.217896
2022-11-28T11:16:26.658Z,5.298462
2022-11-28T11:19:51.840Z,5.419312
2022-11-28T11:23:17.538Z,5.39917
2022-11-28T11:26:43.683Z,5.379028
2022-11-28T11:30:09.213Z,5.379028
2022-11-28T11:33:34.432Z,5.389099
2022-11-28T11:36:59.664Z,5.26825
2022-11-28T11:40:24.873Z,5.248108
2022-11-28T11:43:50.146Z,5.197754
2022-11-28T11:47:15.364Z,5.036621
2022-11-28T11:50:40.589Z,4.986267
2022-11-28T11:54:05.815Z,4.956055
2022-11-28T11:57:33.758Z,4.956055
2022-11-28T12:00:56.311Z,4.915771
2022-11-28T12:04:44.180Z,4.885559
2022-11-28T12:07:46.798Z,4.905701
2022-11-28T12:11:11.934Z,4.855347
2022-11-28T12:14:37.173Z,4.804993
2022-11-28T12:18:02.433Z,4.845276
2022-11-28T12:21:27.627Z,4.855347
2022-11-28T12:24:52.849Z,4.804993
2022-11-28T12:28:18.073Z,4.835205
2022-11-28T12:31:43.387Z,4.835205
2022-11-28T12:35:08.535Z,4.905701
2022-11-28T12:38:33.737Z,4.966125
2022-11-28T12:41:58.961Z,5.056763
2022-11-28T12:45:24.179Z,5.016479
2022-11-28T12:48:53.149Z,5.056763
2022-11-28T12:52:14.634Z,5.127258
2022-11-28T12:55:39.845Z,5.217896
2022-11-28T12:59:05.076Z,5.217896
2022-11-28T13:02:30.394Z,5.127258
2022-11-28T13:05:55.547Z,5.02655
2022-11-28T13:09:20.784Z,5.086975
2022-11-28T13:12:45.986Z,5.056763
2022-11-28T13:16:11.232Z,5.167542
2022-11-28T13:19:36.446Z,5.207825
2022-11-28T13:23:01.722Z,5.328674
2022-11-28T13:26:27.123Z,5.540161
2022-11-28T13:29:52.405Z,5.600586
2022-11-28T13:33:17.706Z,5.540161
2022-11-28T13:40:08.362Z,5.238037
2022-11-28T13:43:33.599Z,5.207825
2022-11-28T13:46:58.956Z,5.207825
2022-11-28T13:50:24.247Z,5.127258
2022-11-28T13:53:49.560Z,5.02655
2022-11-28T13:57:14.859Z,5.02655
2022-11-28T14:00:40.269Z,5.127258
2022-11-28T14:04:05.552Z,5.177612
2022-11-28T14:07:30.977Z,5.127258
2022-11-28T14:10:56.502Z,5.117188
2022-11-28T14:14:21.492Z,5.016479
2022-11-28T14:17:46.805Z,4.815063
2022-11-28T14:21:12.083Z,4.77478
2022-11-28T14:24:37.403Z,4.754639
2022-11-28T14:28:02.712Z,4.754639
2022-11-28T14:31:30.841Z,4.815063
2022-11-28T15:05:07.871Z,5.02655
2022-11-28T15:08:33.107Z,4.915771
2022-11-28T15:11:58.411Z,4.996338
2022-11-28T15:15:23.710Z,5.016479
2022-11-28T15:18:49.054Z,5.02655
2022-11-28T15:22:14.404Z,4.996338
2022-11-28T15:25:39.705Z,4.996338
2022-11-28T15:29:05.051Z,5.02655
2022-11-28T15:32:30.332Z,4.986267
2022-11-28T15:35:55.621Z,4.966125
2022-11-28T15:39:20.996Z,5.02655
2022-11-28T15:42:46.287Z,5.036621
2022-11-28T15:46:11.618Z,5.036621
2022-11-28T15:49:36.959Z,5.02655
2022-11-28T15:53:02.310Z,4.996338
2022-11-28T15:56:27.663Z,4.996338
2022-11-28T15:59:52.976Z,5.016479
2022-11-28T16:03:18.306Z,5.016479
2022-11-28T16:06:43.583Z,5.056763
2022-11-28T16:10:08.873Z,5.086975
2022-11-28T16:13:34.277Z,5.086975
2022-11-28T16:16:59.538Z,5.066833
2022-11-28T16:20:24.851Z,5.056763
2022-11-28T16:23:50.148Z,4.986267
2022-11-28T16:27:15.431Z,5.016479
2022-11-28T16:30:40.761Z,5.036621
2022-11-28T16:34:06.067Z,4.956055
2022-11-28T16:37:31.374Z,4.905701
2022-11-28T16:40:56.645Z,4.875488
2022-11-28T16:44:21.982Z,4.885559
2022-11-28T16:47:47.322Z,4.986267
2022-11-28T16:51:12.592Z,5.066833
2022-11-28T16:54:37.841Z,5.097046
2022-11-28T16:58:03.084Z,4.956055
2022-11-28T17:01:28.322Z,4.885559
2022-11-28T17:04:53.766Z,4.885559
2022-11-28T17:08:19.123Z,4.815063
2022-11-28T17:11:44.369Z,4.784851
2022-11-28T17:15:09.719Z,4.815063
2022-11-28T17:18:34.965Z,4.885559
2022-11-28T17:22:00.432Z,4.915771
2022-11-28T17:25:25.549Z,4.885559
2022-11-28T17:28:50.801Z,4.905701
2022-11-28T17:32:16.058Z,4.905701
2022-11-28T17:35:41.341Z,4.845276
2022-11-28T17:39:06.651Z,4.815063
2022-11-28T17:42:31.977Z,4.804993
2022-11-28T17:45:57.325Z,4.77478
2022-11-28T17:49:22.650Z,4.77478
2022-11-28T17:52:48.020Z,4.784851
2022-11-28T17:56:13.425Z,4.784851
2022-11-28T17:59:38.720Z,4.804993
2022-11-28T18:03:04.086Z,4.804993
2022-11-28T18:06:29.512Z,4.784851
2022-11-28T18:09:54.863Z,4.724426
2022-11-28T18:13:20.193Z,4.674072
2022-11-28T18:16:45.501Z,4.664001
2022-11-28T18:20:10.782Z,4.653931
2022-11-28T18:23:36.135Z,4.704285
2022-11-28T18:27:01.536Z,4.804993
2022-11-28T18:30:26.924Z,4.875488
2022-11-28T18:33:53.536Z,4.935913
2022-11-28T18:37:17.489Z,4.935913
2022-11-28T18:40:42.829Z,4.815063
2022-11-28T18:44:08.173Z,4.804993
2022-11-28T18:47:33.489Z,4.734497
2022-11-28T18:50:58.704Z,4.734497
2022-11-28T18:54:24.060Z,4.835205
2022-11-28T18:57:49.343Z,4.855347
2022-11-28T19:01:14.661Z,4.875488
2022-11-28T19:04:39.975Z,4.905701
2022-11-28T19:08:05.312Z,4.845276
2022-11-28T19:11:30.575Z,4.623718
2022-11-28T19:15:00.393Z,4.472656
2022-11-28T19:18:21.253Z,4.331665
2022-11-28T19:21:46.533Z,4.291382
2022-11-28T19:25:11.825Z,4.321594
2022-11-28T19:28:37.098Z,4.341736
2022-11-28T19:32:02.480Z,4.412231
2022-11-28T19:35:27.757Z,4.442444
2022-11-28T19:38:53.092Z,4.341736
2022-11-28T19:42:18.375Z,4.301453
2022-11-28T19:45:43.799Z,4.321594
2022-11-28T19:49:09.034Z,4.341736
2022-11-28T19:52:34.352Z,4.321594
2022-11-28T19:55:59.664Z,4.261169
2022-11-28T19:59:24.993Z,4.301453
2022-11-28T20:02:50.339Z,4.160461
2022-11-28T20:06:15.640Z,4.059753
2022-11-28T20:09:41.070Z,4.039612
2022-11-28T20:13:06.307Z,3.959045
2022-11-28T20:16:31.722Z,3.878479
2022-11-28T20:19:56.979Z,3.898621
2022-11-28T20:23:22.230Z,3.938904
2022-11-28T20:26:47.512Z,3.969116
2022-11-28T20:30:12.868Z,3.938904
2022-11-28T20:33:38.561Z,3.969116
2022-11-28T20:37:03.829Z,3.928833
2022-11-28T20:40:29.726Z,3.908691
2022-11-28T20:43:54.936Z,3.959045
2022-11-28T20:47:20.186Z,3.878479
2022-11-28T20:50:45.365Z,3.878479
2022-11-28T20:54:10.582Z,3.878479
2022-11-28T20:57:35.798Z,3.928833
2022-11-28T21:01:01.027Z,3.928833
2022-11-28T21:04:26.244Z,3.928833
2022-11-28T21:07:51.466Z,3.908691
2022-11-28T21:11:30.830Z,3.868408
2022-11-28T21:14:41.854Z,3.787842
2022-11-28T21:18:07.080Z,3.757629
2022-11-28T21:21:32.307Z,3.878479
2022-11-28T21:24:57.490Z,3.908691
2022-11-28T21:28:22.701Z,3.928833
2022-11-28T21:31:47.949Z,4.049683
2022-11-28T21:35:13.167Z,4.150391
2022-11-28T21:38:38.413Z,4.220886
2022-11-28T21:42:03.614Z,4.160461
2022-11-28T21:45:28.835Z,4.039612
2022-11-28T21:48:54.030Z,4.01947
2022-11-28T21:52:19.240Z,3.969116
2022-11-28T21:55:44.496Z,3.969116
2022-11-28T21:59:09.691Z,3.999329
2022-11-28T22:02:34.959Z,3.999329
2022-11-28T22:06:00.166Z,3.969116
2022-11-28T22:09:25.385Z,3.908691
2022-11-28T22:12:50.629Z,3.908691
2022-11-28T22:16:15.831Z,3.878479
2022-11-28T22:19:41.043Z,3.908691
2022-11-28T22:23:06.303Z,3.928833
2022-11-28T22:26:31.517Z,3.938904
2022-11-28T22:29:56.753Z,3.969116
2022-11-28T22:33:21.938Z,3.928833
2022-11-28T22:36:47.165Z,3.868408
2022-11-28T22:40:12.387Z,3.838196
2022-11-28T22:43:37.613Z,3.858337
2022-11-28T22:47:02.845Z,3.898621
2022-11-28T22:50:28.045Z,3.868408
2022-11-28T22:53:53.267Z,3.878479
2022-11-28T22:57:18.493Z,3.858337
2022-11-28T23:00:43.716Z,3.797913
2022-11-28T23:04:08.943Z,3.797913
2022-11-28T23:07:34.200Z,3.787842
2022-11-28T23:10:59.358Z,3.838196
2022-11-28T23:14:24.562Z,3.727417
2022-11-28T23:17:49.791Z,3.747559
2022-11-28T23:21:15.064Z,3.757629
2022-11-28T23:24:40.450Z,3.777771
2022-11-28T23:28:05.476Z,3.898621
2022-11-28T23:31:30.733Z,3.858337
2022-11-28T23:34:55.889Z,3.868408
2022-11-28T23:38:21.148Z,3.878479
2022-11-28T23:41:46.313Z,3.938904
2022-11-28T23:45:11.543Z,4.01947
2022-11-28T23:48:36.772Z,4.039612
2022-11-28T23:52:01.978Z,4.039612
2022-11-28T23:55:27.221Z,4.120178
2022-11-28T23:58:52.426Z,4.150391
